BEL255 EBBR-DFFD
Flight info
| Callsign | BEL255 |
|---|---|
| Flight time | N/A |
| Altitude | 38000 |
| Route | CIV DCT MEDIL DCT DISAK DCT ENESO DCT FJR DCT OBLAD DCT DOLIS UN736 BSA UB726 GHA UM114 BIDOM UG855 NY UG854 DEKAS UQ594 BULSA DCT EDGAS |
| Aircraft | A333/H-SDE3GHIJ2J3J5M1RVWXYZ/LB2D1 |
Departure
| Time | N/A |
|---|---|
| Airport | Brussels Airport (EBBR) |
Arrival
| Time | 2026-04-22 02:28 |
|---|---|
| Airport | Ouagadougou Thomas Sankara International Airport (DFFD) |
| Time | Latitude | Longitude | Altitude | Speed | Heading |
|---|---|---|---|---|---|
| 2026-04-22 02:06 | 12.51449 | -1.78344 | 16346 ft | 298 kts | 100° |
| 2026-04-22 02:06 | 12.50782 | -1.76439 | 15847 ft | 287 kts | 124° |
| 2026-04-22 02:07 | 12.49352 | -1.74997 | 15141 ft | 286 kts | 149° |
| 2026-04-22 02:07 | 12.47470 | -1.74374 | 14472 ft | 287 kts | 174° |
| 2026-04-22 02:07 | 12.45458 | -1.74294 | 13788 ft | 285 kts | 170° |
| 2026-04-22 02:07 | 12.43478 | -1.74040 | 13073 ft | 285 kts | 172° |
| 2026-04-22 02:08 | 12.41515 | -1.74297 | 12359 ft | 292 kts | 198° |
| 2026-04-22 02:08 | 12.39770 | -1.75352 | 11667 ft | 297 kts | 222° |
| 2026-04-22 02:08 | 12.38585 | -1.77100 | 10981 ft | 298 kts | 244° |
| 2026-04-22 02:08 | 12.37782 | -1.79045 | 10283 ft | 298 kts | 252° |
| 2026-04-22 02:09 | 12.37251 | -1.81147 | 9559 ft | 298 kts | 258° |
| 2026-04-22 02:09 | 12.36751 | -1.83214 | 8752 ft | 301 kts | 249° |
| 2026-04-22 02:09 | 12.35799 | -1.85114 | 7938 ft | 302 kts | 233° |
| 2026-04-22 02:09 | 12.34247 | -1.86559 | 7132 ft | 299 kts | 207° |
| 2026-04-22 02:10 | 12.32286 | -1.87180 | 6346 ft | 294 kts | 181° |
| 2026-04-22 02:10 | 12.30312 | -1.86869 | 5754 ft | 279 kts | 152° |
| 2026-04-22 02:10 | 12.28826 | -1.85770 | 5792 ft | 244 kts | 134° |
| 2026-04-22 02:10 | 12.27598 | -1.84621 | 5799 ft | 233 kts | 135° |
| 2026-04-22 02:11 | 12.26529 | -1.83407 | 5842 ft | 219 kts | 118° |
| 2026-04-22 02:11 | 12.25876 | -1.82067 | 5834 ft | 200 kts | 110° |
| 2026-04-22 02:11 | 12.25378 | -1.80769 | 5818 ft | 187 kts | 107° |
| 2026-04-22 02:11 | 12.24954 | -1.79523 | 5839 ft | 186 kts | 107° |
| 2026-04-22 02:12 | 12.24540 | -1.78243 | 5757 ft | 182 kts | 106° |
| 2026-04-22 02:12 | 12.24157 | -1.77036 | 5725 ft | 170 kts | 105° |
| 2026-04-22 02:12 | 12.23790 | -1.75861 | 5609 ft | 173 kts | 105° |
| 2026-04-22 02:12 | 12.23419 | -1.74668 | 5465 ft | 174 kts | 105° |
| 2026-04-22 02:13 | 12.23047 | -1.73477 | 5287 ft | 175 kts | 105° |
| 2026-04-22 02:13 | 12.22675 | -1.72279 | 4813 ft | 180 kts | 106° |
| 2026-04-22 02:13 | 12.22299 | -1.71060 | 4377 ft | 178 kts | 107° |
| 2026-04-22 02:13 | 12.22048 | -1.69827 | 3953 ft | 178 kts | 87° |
| 2026-04-22 02:14 | 12.22268 | -1.68582 | 3638 ft | 172 kts | 79° |
| 2026-04-22 02:14 | 12.22531 | -1.67402 | 3419 ft | 168 kts | 78° |
| 2026-04-22 02:14 | 12.22797 | -1.66252 | 3155 ft | 164 kts | 79° |
| 2026-04-22 02:14 | 12.23062 | -1.65112 | 2908 ft | 164 kts | 79° |
| 2026-04-22 02:15 | 12.23431 | -1.64007 | 2667 ft | 165 kts | 69° |
| 2026-04-22 02:15 | 12.23895 | -1.62941 | 2559 ft | 162 kts | 70° |
| 2026-04-22 02:15 | 12.24358 | -1.61889 | 2551 ft | 156 kts | 69° |
| 2026-04-22 02:15 | 12.24806 | -1.60882 | 2505 ft | 150 kts | 69° |
| 2026-04-22 02:16 | 12.25240 | -1.59913 | 2555 ft | 148 kts | 69° |
| 2026-04-22 02:16 | 12.25681 | -1.58935 | 2547 ft | 149 kts | 68° |
| 2026-04-22 02:16 | 12.26121 | -1.57959 | 2544 ft | 149 kts | 68° |
| 2026-04-22 02:16 | 12.26518 | -1.56964 | 2523 ft | 151 kts | 84° |
| 2026-04-22 02:17 | 12.27011 | -1.56024 | 2474 ft | 156 kts | 39° |
| 2026-04-22 02:17 | 12.28039 | -1.55582 | 2306 ft | 158 kts | 23° |
| 2026-04-22 02:17 | 12.29054 | -1.55142 | 2173 ft | 158 kts | 27° |
| 2026-04-22 02:17 | 12.30039 | -1.54619 | 1969 ft | 157 kts | 31° |
| 2026-04-22 02:18 | 12.31020 | -1.54056 | 1779 ft | 157 kts | 31° |
| 2026-04-22 02:18 | 12.31941 | -1.53435 | 1628 ft | 159 kts | 36° |
| 2026-04-22 02:18 | 12.32880 | -1.52811 | 1441 ft | 159 kts | 33° |
| 2026-04-22 02:18 | 12.33823 | -1.52221 | 1163 ft | 154 kts | 34° |
| 2026-04-22 02:19 | 12.34717 | -1.51637 | 1066 ft | 142 kts | 35° |
| 2026-04-22 02:19 | 12.35560 | -1.51068 | 1152 ft | 148 kts | 33° |
| 2026-04-22 02:19 | 12.36386 | -1.50500 | 1700 ft | 141 kts | 51° |
| 2026-04-22 02:19 | 12.36749 | -1.49524 | 1770 ft | 160 kts | 94° |
| 2026-04-22 02:20 | 12.36473 | -1.48435 | 1798 ft | 157 kts | 126° |
| 2026-04-22 02:20 | 12.35749 | -1.47629 | 2131 ft | 155 kts | 142° |
| 2026-04-22 02:20 | 12.34845 | -1.47025 | 2373 ft | 156 kts | 165° |
| 2026-04-22 02:20 | 12.33778 | -1.47141 | 2587 ft | 156 kts | 207° |
| 2026-04-22 02:21 | 12.32816 | -1.47715 | 2869 ft | 158 kts | 209° |
| 2026-04-22 02:21 | 12.31845 | -1.48314 | 3154 ft | 163 kts | 209° |
| 2026-04-22 02:21 | 12.30867 | -1.48927 | 3437 ft | 167 kts | 210° |
| 2026-04-22 02:21 | 12.29845 | -1.49568 | 3730 ft | 170 kts | 208° |
| 2026-04-22 02:22 | 12.28827 | -1.50212 | 4018 ft | 171 kts | 208° |
| 2026-04-22 02:22 | 12.27800 | -1.50857 | 4296 ft | 173 kts | 208° |
| 2026-04-22 02:22 | 12.26733 | -1.51520 | 4092 ft | 175 kts | 209° |
| 2026-04-22 02:22 | 12.25717 | -1.52147 | 3723 ft | 163 kts | 209° |
| 2026-04-22 02:23 | 12.24779 | -1.52730 | 3352 ft | 153 kts | 210° |
| 2026-04-22 02:23 | 12.23924 | -1.53355 | 2935 ft | 148 kts | 228° |
| 2026-04-22 02:23 | 12.23297 | -1.54164 | 2569 ft | 142 kts | 238° |
| 2026-04-22 02:23 | 12.22644 | -1.54890 | 2165 ft | 136 kts | 220° |
| 2026-04-22 02:24 | 12.22256 | -1.55743 | 1901 ft | 138 kts | 265° |
| 2026-04-22 02:24 | 12.22593 | -1.56693 | 1911 ft | 145 kts | 297° |
| 2026-04-22 02:24 | 12.23059 | -1.57627 | 1941 ft | 152 kts | 314° |
| 2026-04-22 02:24 | 12.24069 | -1.57885 | 2003 ft | 157 kts | 14° |
| 2026-04-22 02:25 | 12.25080 | -1.57442 | 2128 ft | 154 kts | 27° |
| 2026-04-22 02:25 | 12.26059 | -1.56952 | 2210 ft | 158 kts | 31° |
| 2026-04-22 02:25 | 12.27060 | -1.56442 | 2137 ft | 159 kts | 27° |
| 2026-04-22 02:25 | 12.28065 | -1.55941 | 2117 ft | 157 kts | 27° |
| 2026-04-22 02:26 | 12.29000 | -1.55347 | 2086 ft | 157 kts | 32° |
| 2026-04-22 02:26 | 12.29946 | -1.54775 | 2005 ft | 160 kts | 33° |
| 2026-04-22 02:26 | 12.30916 | -1.54193 | 1796 ft | 161 kts | 32° |
| 2026-04-22 02:26 | 12.31840 | -1.53559 | 1580 ft | 158 kts | 38° |
| 2026-04-22 02:27 | 12.32758 | -1.52908 | 1367 ft | 157 kts | 35° |
| 2026-04-22 02:27 | 12.33679 | -1.52318 | 1166 ft | 154 kts | 34° |
| 2026-04-22 02:27 | 12.34575 | -1.51730 | 1063 ft | 145 kts | 33° |
| 2026-04-22 02:27 | 12.35360 | -1.51200 | 1025 ft | 111 kts | 35° |
| 2026-04-22 02:28 | 12.35716 | -1.50954 | 1016 ft | 20 kts | 39° |
| 2026-04-22 02:28 | 12.35741 | -1.50950 | 1015 ft | 3 kts | 353° |
| 2026-04-22 02:28 | 12.35765 | -1.50953 | 1014 ft | 6 kts | 351° |